Flight Track Log - Related Links

Times and Time Zones

All times are in EDT time to prevent confusion due to time zone crossing. See the EJA587 flight status page for this flight to view local times or setup timezone preferences in your user account.

Time Position Orientation Groundspeed Altitude Reporting Facility
EDT Latitude Longitude Course Direction KTS MPH feet Rate Location/Type
Wed 09:23:22 PM 38.9500 -77.5000 338° Northwest 183 211 1,700  Level Potomac TRACON
Wed 09:25:42 PM 39.0869 -77.5706 338° Northwest 260 299 7,800 2,700 Climbing Washington Center
Wed 09:26:42 PM 39.1656 -77.5967 346° North 273 314 10,700 2,926 Climbing Washington Center
Wed 09:27:43 PM 39.2375 -77.6522 329° Northwest 285 328 13,700 2,926 Climbing Washington Center
Wed 09:28:43 PM 39.3158 -77.7108 330° Northwest 299 344 16,600 2,542 Climbing Washington Center
Wed 09:29:41 PM 39.3981 -77.7697 331° Northwest 320 368 18,700 2,118 Climbing Washington Center
Wed 09:30:42 PM 39.4844 -77.8342 330° Northwest 339 390 20,800 2,066 Climbing Washington Center
Wed 09:31:43 PM 39.5728 -77.9014 330° Northwest 361 415 22,900 2,300 Climbing Washington Center
Wed 09:32:42 PM 39.6753 -77.9761 331° Northwest 368 423 25,400 2,083 Climbing Cleveland Center
Wed 09:33:44 PM 39.7625 -78.0417 330° Northwest 366 421 27,100 1,561 Climbing Cleveland Center
Wed 09:34:45 PM 39.8494 -78.1117 328° Northwest 366 421 28,600 1,415 Climbing Cleveland Center
Wed 09:35:47 PM 39.9117 -78.2100 310° West 352 405 30,000 683 Climbing Cleveland Center
Wed 09:36:48 PM 39.9764 -78.3075 311° West 352 405 30,000  Level Cleveland Center
Wed 09:37:50 PM 40.0408 -78.4067 310° West 354 407 30,000  Level Cleveland Center
Wed 09:38:51 PM 40.1042 -78.5047 310° West 354 407 30,000  Level Cleveland Center
Wed 09:39:53 PM 40.1672 -78.6019 310° West 354 407 30,000 -49 Level Cleveland Center
Wed 09:40:54 PM 40.2289 -78.6986 310° West 353 406 29,900 -634 Descending Cleveland Center
Wed 09:41:56 PM 40.3025 -78.8111 311° West 347 399 28,700 -927 Descending Cleveland Center
Wed 09:42:57 PM 40.3589 -78.9067 308° West 340 391 28,000 -341 Descending Cleveland Center
Wed 09:43:59 PM 40.4125 -79.0042 306° West 335 386 28,000  Level Cleveland Center
Wed 09:45:00 PM 40.4694 -79.1025 307° West 335 386 28,000  Level Cleveland Center
Wed 09:46:01 PM 40.5264 -79.2050 306° West 338 389 28,000  Level Cleveland Center
Wed 09:47:03 PM 40.5831 -79.3075 306° West 349 402 28,000  Level Cleveland Center
Wed 09:49:06 PM 40.7000 -79.5167 306° West 355 409 28,000 -98 Level Cleveland Center
Wed 09:50:07 PM 40.7703 -79.6428 306° West 358 412 27,700 -683 Descending Cleveland Center
Wed 09:51:09 PM 40.8281 -79.7492 306° West 358 412 26,600 -1,024 Descending Cleveland Center
Wed 09:52:10 PM 40.8883 -79.8581 306° West 365 420 25,600 -984 Descending Cleveland Center
Wed 09:53:11 PM 40.9506 -79.9711 306° West 379 436 24,600 -1,122 Descending Cleveland Center
Wed 09:54:13 PM 41.0086 -80.0772 306° West 365 420 23,300 -1,268 Descending Cleveland Center
Wed 09:55:14 PM 41.0650 -80.1811 306° West 352 405 22,000 -1,366 Descending Cleveland Center
Wed 09:56:16 PM 41.1322 -80.3033 306° West 346 398 20,500 -1,415 Descending Cleveland Center
Wed 09:57:17 PM 41.1856 -80.4031 305° West 354 407 19,100 -1,463 Descending Cleveland Center
Wed 09:58:19 PM 41.2428 -80.5089 306° West 354 407 17,500 -1,805 Descending Cleveland Center
Wed 09:59:20 PM 41.2956 -80.6089 305° West 333 383 15,400 -2,243 Descending Cleveland Center
Wed 10:00:14 PM 41.3439 -80.7119 302° West 313 360 13,200 -2,262 Descending Cleveland Center
Wed 10:00:21 PM 41.3461 -80.7083 51° Northeast 327 376 13,100 -2,509 Descending Cleveland Center
Wed 10:01:09 PM 41.3767 -80.7975 295° West 270 311 10,900 -2,419 Descending Cleveland Center
Wed 10:01:23 PM 41.3778 -80.8017 290° West 283 326 10,600 -2,239 Descending Cleveland Center
Wed 10:02:16 PM 41.4111 -80.8861 298° West 250 288 8,400 -2,459 Descending Cleveland Center
Wed 10:02:24 PM 41.4175 -80.8989 304° West 254 292 8,100 -1,800 Descending Cleveland Center
Wed 10:03:16 PM 41.4403 -80.9628 295° West 226 260 6,600 -1,742 Descending Cleveland Center
Wed 10:03:26 PM 41.4453 -80.9742 300° West 230 265 6,300 -492 Descending Cleveland Center
Wed 10:04:17 PM 41.4678 -81.0339 297° West 214 246 6,100 -197 Descending Cleveland Center
Wed 10:04:27 PM 41.4725 -81.0472 295° West 225 259 6,100  Level Cleveland Center
Wed 10:05:18 PM 41.4953 -81.1050 298° West 211 243 6,100  Level Cleveland Center
Wed 10:05:29 PM 41.4986 -81.1172 290° West 215 247 6,100 -600 Level Cleveland Center
Wed 10:06:18 PM 41.5231 -81.1733 300° West 210 242 5,500 -885 Descending Cleveland Center
Wed 10:06:30 PM 41.5267 -81.1842 294° West 210 242 5,200 -1,869 Descending Cleveland Center
Wed 10:07:19 PM 41.5533 -81.2367 304° West 204 235 3,600 -1,839 Descending Cleveland Center
Wed 10:07:32 PM 41.5586 -81.2489 300° West 208 239 3,300 -500 Descending Cleveland Center
Wed 10:08:19 PM 41.5814 -81.2997 301° West 179 206 3,100 -197 Descending Cleveland Center
Wed 10:08:33 PM 41.5844 -81.3089 294° West 199 229 3,100  Level Cleveland Center
Wed 10:09:32 PM 41.6031 -81.3619 295° West 158 182 3,100  Level Cleveland Center
Wed 10:09:35 PM 41.6042 -81.3603 48° Northeast 172 198 3,100  Level Cleveland Center
Wed 10:10:33 PM 41.6147 -81.4222 283° West 165 190 3,100  Level Cleveland Center
Wed 10:10:36 PM 41.6142 -81.4197 107° East 165 190 3,100  Level Cleveland Center
Wed 10:11:33 PM 41.6114 -81.4833 267° West 166 191 3,100  Level Cleveland Center
Wed 10:11:38 PM 41.6108 -81.4800 103° East 167 192 3,100  Level Cleveland Center
Wed 10:12:34 PM 41.5881 -81.5328 240° Southwest 144 166 3,100  Level Cleveland Center
Wed 10:12:39 PM 41.5869 -81.5381 254° West 159 183 3,100 -590 Level Cleveland Center
Wed 10:13:35 PM 41.5697 -81.5719 236° Southwest 114 131 2,500 -677 Descending Cleveland Center
Wed 10:13:41 PM 41.5692 -81.5742 252° West 135 155 2,400 -627 Descending Cleveland Center
Wed 10:14:42 PM 41.5528 -81.6086 238° Southwest 119 137 1,800 -545 Descending Cleveland Center
Wed 10:15:42 PM 41.5389 -81.6367 237° Southwest 90 104 1,300 -484 Descending Cleveland Center
Wed 10:15:44 PM 41.5392 -81.6378 288° West 103 119 1,300 -556 Level Cleveland Center
Wed 10:16:36 PM 41.5281 -81.6631 240° Southwest 87 100 800 -492 Descending Cleveland Center
Wed 10:16:45 PM 41.5258 -81.6664 228° Southwest 94 108 800  Level Cleveland Center

Login

Don't have an account? Register now (free) for customized features, flight alerts, and more!